Aviation Digital Data Service (ADDS)

Output produced by METARs form (0615 UTC 19 March 2019)
found at http://www.aviationweather.gov/metar/data/
 
METAR text: RPLL 190600Z 12014KT 9999 SCT025 33/23 Q1011 NOSIG RMK A2985
Conditions at: RPLL (NINOY AQUINO INT, PH) observed 0600 UTC 19 March 2019
Temperature: 33.0°C (91°F)
Dewpoint: 23.0°C (73°F) [RH = 56%]
Pressure (altimeter): 29.85 inches Hg (1011.0 mb)
Winds: from the ESE (120 degrees) at 16 MPH (14 knots; 7.2 m/s)
Visibility: 6 or more miles (10+ km)
Ceiling: at least 12,000 feet AGL
Clouds: scattered clouds at 2500 feet AGL
Weather: no significant weather observed at this time

METAR text: RPLL 190500Z 11012KT 9999 SCT025 34/21 Q1012 NOSIG RMK A2988
Conditions at: RPLL (NINOY AQUINO INT, PH) observed 0500 UTC 19 March 2019
Temperature: 34.0°C (93°F)
Dewpoint: 21.0°C (70°F) [RH = 47%]
Pressure (altimeter): 29.88 inches Hg (1012.0 mb)
Winds: from the ESE (110 degrees) at 14 MPH (12 knots; 6.2 m/s)
Visibility: 6 or more miles (10+ km)
Ceiling: at least 12,000 feet AGL
Clouds: scattered clouds at 2500 feet AGL
Weather: no significant weather observed at this time

METAR text: RPLL 190400Z 11012KT 9999 FEW025 34/21 Q1013 NOSIG RMK A2991
Conditions at: RPLL (NINOY AQUINO INT, PH) observed 0400 UTC 19 March 2019
Temperature: 34.0°C (93°F)
Dewpoint: 21.0°C (70°F) [RH = 47%]
Pressure (altimeter): 29.91 inches Hg (1013.0 mb)
Winds: from the ESE (110 degrees) at 14 MPH (12 knots; 6.2 m/s)
Visibility: 6 or more miles (10+ km)
Ceiling: at least 12,000 feet AGL
Clouds: few clouds at 2500 feet AGL
Weather: no significant weather observed at this time

METAR text: RPLL 190300Z 11012KT 9999 FEW025 32/20 Q1014 NOSIG RMK A2994
Conditions at: RPLL (NINOY AQUINO INT, PH) observed 0300 UTC 19 March 2019
Temperature: 32.0°C (90°F)
Dewpoint: 20.0°C (68°F) [RH = 49%]
Pressure (altimeter): 29.94 inches Hg (1014.0 mb)
Winds: from the ESE (110 degrees) at 14 MPH (12 knots; 6.2 m/s)
Visibility: 6 or more miles (10+ km)
Ceiling: at least 12,000 feet AGL
Clouds: few clouds at 2500 feet AGL
Weather: no significant weather observed at this time

METAR text: RPLL 190200Z 11010KT 9999 FEW025 31/20 Q1015 NOSIG RMK A2997
Conditions at: RPLL (NINOY AQUINO INT, PH) observed 0200 UTC 19 March 2019
Temperature: 31.0°C (88°F)
Dewpoint: 20.0°C (68°F) [RH = 52%]
Pressure (altimeter): 29.97 inches Hg (1015.0 mb)
Winds: from the ESE (110 degrees) at 12 MPH (10 knots; 5.1 m/s)
Visibility: 6 or more miles (10+ km)
Ceiling: at least 12,000 feet AGL
Clouds: few clouds at 2500 feet AGL
Weather: no significant weather observed at this time

METAR text: RPLL 190100Z 08008KT 9999 FEW025 30/18 Q1014 NOSIG RMK A2994
Conditions at: RPLL (NINOY AQUINO INT, PH) observed 0100 UTC 19 March 2019
Temperature: 30.0°C (86°F)
Dewpoint: 18.0°C (64°F) [RH = 49%]
Pressure (altimeter): 29.94 inches Hg (1014.0 mb)
Winds: from the E (80 degrees) at 9 MPH (8 knots; 4.1 m/s)
Visibility: 6 or more miles (10+ km)
Ceiling: at least 12,000 feet AGL
Clouds: few clouds at 2500 feet AGL
Weather: no significant weather observed at this time

METAR text: RPLL 190000Z 08006KT 9999 FEW025 SCT300 28/20 Q1014 NOSIG RMK A2994
Conditions at: RPLL (NINOY AQUINO INT, PH) observed 0000 UTC 19 March 2019
Temperature: 28.0°C (82°F)
Dewpoint: 20.0°C (68°F) [RH = 62%]
Pressure (altimeter): 29.94 inches Hg (1014.0 mb)
Winds: from the E (80 degrees) at 7 MPH (6 knots; 3.1 m/s)
Visibility: 6 or more miles (10+ km)
Ceiling: at least 12,000 feet AGL
Clouds: few clouds at 2500 feet AGL
scattered clouds at 30000 feet AGL
Weather: no significant weather observed at this time

METAR text: RPLL 182300Z 08002KT 9999 FEW025 26/20 Q1013 NOSIG RMK A2991
Conditions at: RPLL (NINOY AQUINO INT, PH) observed 2300 UTC 18 March 2019
Temperature: 26.0°C (79°F)
Dewpoint: 20.0°C (68°F) [RH = 70%]
Pressure (altimeter): 29.91 inches Hg (1013.0 mb)
Winds: from the E (80 degrees) at 2 MPH (2 knots; 1.0 m/s)
Visibility: 6 or more miles (10+ km)
Ceiling: at least 12,000 feet AGL
Clouds: few clouds at 2500 feet AGL
Weather: no significant weather observed at this time

METAR text: RPLL 182200Z 06002KT 030V100 9999 FEW025 26/19 Q1012 NOSIG RMK A2988
Conditions at: RPLL (NINOY AQUINO INT, PH) observed 2200 UTC 18 March 2019
Temperature: 26.0°C (79°F)
Dewpoint: 19.0°C (66°F) [RH = 65%]
Pressure (altimeter): 29.88 inches Hg (1012.0 mb)
Winds: from the ENE (60 degrees) at 2 MPH (2 knots; 1.0 m/s)
Visibility: 6 or more miles (10+ km)
Ceiling: at least 12,000 feet AGL
Clouds: few clouds at 2500 feet AGL
Weather: no significant weather observed at this time

METAR text: RPLL 182100Z VRB01KT 9999 FEW025 26/19 Q1012 NOSIG RMK A2988
Conditions at: RPLL (NINOY AQUINO INT, PH) observed 2100 UTC 18 March 2019
Temperature: 26.0°C (79°F)
Dewpoint: 19.0°C (66°F) [RH = 65%]
Pressure (altimeter): 29.88 inches Hg (1012.0 mb)
Winds: variable direction winds at 1 MPH (1 knots; 0.5 m/s)
Visibility: 6 or more miles (10+ km)
Ceiling: at least 12,000 feet AGL
Clouds: few clouds at 2500 feet AGL
Weather: no significant weather observed at this time

METAR text: RPLL 182000Z 06004KT 9999 FEW025 26/19 Q1011 NOSIG RMK A2985
Conditions at: RPLL (NINOY AQUINO INT, PH) observed 2000 UTC 18 March 2019
Temperature: 26.0°C (79°F)
Dewpoint: 19.0°C (66°F) [RH = 65%]
Pressure (altimeter): 29.85 inches Hg (1011.0 mb)
Winds: from the ENE (60 degrees) at 5 MPH (4 knots; 2.1 m/s)
Visibility: 6 or more miles (10+ km)
Ceiling: at least 12,000 feet AGL
Clouds: few clouds at 2500 feet AGL
Weather: no significant weather observed at this time

METAR text: RPLL 181900Z 10004KT 9999 FEW025 26/19 Q1012 NOSIG RMK A2988
Conditions at: RPLL (NINOY AQUINO INT, PH) observed 1900 UTC 18 March 2019
Temperature: 26.0°C (79°F)
Dewpoint: 19.0°C (66°F) [RH = 65%]
Pressure (altimeter): 29.88 inches Hg (1012.0 mb)
Winds: from the E (100 degrees) at 5 MPH (4 knots; 2.1 m/s)
Visibility: 6 or more miles (10+ km)
Ceiling: at least 12,000 feet AGL
Clouds: few clouds at 2500 feet AGL
Weather: no significant weather observed at this time

METAR text: RPLL 181800Z 10004KT 9999 FEW025 26/19 Q1012 NOSIG RMK A2988
Conditions at: RPLL (NINOY AQUINO INT, PH) observed 1800 UTC 18 March 2019
Temperature: 26.0°C (79°F)
Dewpoint: 19.0°C (66°F) [RH = 65%]
Pressure (altimeter): 29.88 inches Hg (1012.0 mb)
Winds: from the E (100 degrees) at 5 MPH (4 knots; 2.1 m/s)
Visibility: 6 or more miles (10+ km)
Ceiling: at least 12,000 feet AGL
Clouds: few clouds at 2500 feet AGL
Weather: no significant weather observed at this time

METAR text: RPLL 181700Z 14002KT 9999 FEW025 26/20 Q1013 NOSIG RMK A2991
Conditions at: RPLL (NINOY AQUINO INT, PH) observed 1700 UTC 18 March 2019
Temperature: 26.0°C (79°F)
Dewpoint: 20.0°C (68°F) [RH = 70%]
Pressure (altimeter): 29.91 inches Hg (1013.0 mb)
Winds: from the SE (140 degrees) at 2 MPH (2 knots; 1.0 m/s)
Visibility: 6 or more miles (10+ km)
Ceiling: at least 12,000 feet AGL
Clouds: few clouds at 2500 feet AGL
Weather: no significant weather observed at this time

METAR text: RPLL 181600Z 11004KT 080V150 9999 FEW025 27/21 Q1014 NOSIG RMK A2994
Conditions at: RPLL (NINOY AQUINO INT, PH) observed 1600 UTC 18 March 2019
Temperature: 27.0°C (81°F)
Dewpoint: 21.0°C (70°F) [RH = 70%]
Pressure (altimeter): 29.94 inches Hg (1014.0 mb)
Winds: from the ESE (110 degrees) at 5 MPH (4 knots; 2.1 m/s)
Visibility: 6 or more miles (10+ km)
Ceiling: at least 12,000 feet AGL
Clouds: few clouds at 2500 feet AGL
Weather: no significant weather observed at this time

METAR text: RPLL 181500Z 12004KT 090V160 9999 FEW025 27/21 Q1014 NOSIG RMK A2994
Conditions at: RPLL (NINOY AQUINO INT, PH) observed 1500 UTC 18 March 2019
Temperature: 27.0°C (81°F)
Dewpoint: 21.0°C (70°F) [RH = 70%]
Pressure (altimeter): 29.94 inches Hg (1014.0 mb)
Winds: from the ESE (120 degrees) at 5 MPH (4 knots; 2.1 m/s)
Visibility: 6 or more miles (10+ km)
Ceiling: at least 12,000 feet AGL
Clouds: few clouds at 2500 feet AGL
Weather: no significant weather observed at this time

METAR text: RPLL 181400Z 10006KT 9999 FEW025 27/21 Q1014 NOSIG RMK A2994
Conditions at: RPLL (NINOY AQUINO INT, PH) observed 1400 UTC 18 March 2019
Temperature: 27.0°C (81°F)
Dewpoint: 21.0°C (70°F) [RH = 70%]
Pressure (altimeter): 29.94 inches Hg (1014.0 mb)
Winds: from the E (100 degrees) at 7 MPH (6 knots; 3.1 m/s)
Visibility: 6 or more miles (10+ km)
Ceiling: at least 12,000 feet AGL
Clouds: few clouds at 2500 feet AGL
Weather: no significant weather observed at this time

METAR text: RPLL 181300Z 10008KT 9999 FEW025 28/21 Q1013 NOSIG RMK A2991
Conditions at: RPLL (NINOY AQUINO INT, PH) observed 1300 UTC 18 March 2019
Temperature: 28.0°C (82°F)
Dewpoint: 21.0°C (70°F) [RH = 66%]
Pressure (altimeter): 29.91 inches Hg (1013.0 mb)
Winds: from the E (100 degrees) at 9 MPH (8 knots; 4.1 m/s)
Visibility: 6 or more miles (10+ km)
Ceiling: at least 12,000 feet AGL
Clouds: few clouds at 2500 feet AGL
Weather: no significant weather observed at this time

METAR text: RPLL 181200Z 10008KT 9999 FEW025 28/22 Q1013 NOSIG RMK A2991
Conditions at: RPLL (NINOY AQUINO INT, PH) observed 1200 UTC 18 March 2019
Temperature: 28.0°C (82°F)
Dewpoint: 22.0°C (72°F) [RH = 70%]
Pressure (altimeter): 29.91 inches Hg (1013.0 mb)
Winds: from the E (100 degrees) at 9 MPH (8 knots; 4.1 m/s)
Visibility: 6 or more miles (10+ km)
Ceiling: at least 12,000 feet AGL
Clouds: few clouds at 2500 feet AGL
Weather: no significant weather observed at this time

METAR text: RPLL 181100Z 10012KT 9999 FEW025 28/22 Q1013 NOSIG RMK A2991
Conditions at: RPLL (NINOY AQUINO INT, PH) observed 1100 UTC 18 March 2019
Temperature: 28.0°C (82°F)
Dewpoint: 22.0°C (72°F) [RH = 70%]
Pressure (altimeter): 29.91 inches Hg (1013.0 mb)
Winds: from the E (100 degrees) at 14 MPH (12 knots; 6.2 m/s)
Visibility: 6 or more miles (10+ km)
Ceiling: at least 12,000 feet AGL
Clouds: few clouds at 2500 feet AGL
Weather: no significant weather observed at this time

METAR text: RPLL 181000Z 10012KT 9999 FEW025 29/21 Q1012 NOSIG RMK A2988
Conditions at: RPLL (NINOY AQUINO INT, PH) observed 1000 UTC 18 March 2019
Temperature: 29.0°C (84°F)
Dewpoint: 21.0°C (70°F) [RH = 62%]
Pressure (altimeter): 29.88 inches Hg (1012.0 mb)
Winds: from the E (100 degrees) at 14 MPH (12 knots; 6.2 m/s)
Visibility: 6 or more miles (10+ km)
Ceiling: at least 12,000 feet AGL
Clouds: few clouds at 2500 feet AGL
Weather: no significant weather observed at this time

METAR text: RPLL 180900Z 11012KT 070V140 9999 FEW025 31/20 Q1011 NOSIG RMK A2985
Conditions at: RPLL (NINOY AQUINO INT, PH) observed 0900 UTC 18 March 2019
Temperature: 31.0°C (88°F)
Dewpoint: 20.0°C (68°F) [RH = 52%]
Pressure (altimeter): 29.85 inches Hg (1011.0 mb)
Winds: from the ESE (110 degrees) at 14 MPH (12 knots; 6.2 m/s)
Visibility: 6 or more miles (10+ km)
Ceiling: at least 12,000 feet AGL
Clouds: few clouds at 2500 feet AGL
Weather: no significant weather observed at this time

METAR text: RPLL 180800Z 11014KT 9999 FEW025 31/21 Q1011 NOSIG RMK A2985
Conditions at: RPLL (NINOY AQUINO INT, PH) observed 0800 UTC 18 March 2019
Temperature: 31.0°C (88°F)
Dewpoint: 21.0°C (70°F) [RH = 55%]
Pressure (altimeter): 29.85 inches Hg (1011.0 mb)
Winds: from the ESE (110 degrees) at 16 MPH (14 knots; 7.2 m/s)
Visibility: 6 or more miles (10+ km)
Ceiling: at least 12,000 feet AGL
Clouds: few clouds at 2500 feet AGL
Weather: no significant weather observed at this time

METAR text: RPLL 180700Z 12014KT 090V150 9999 FEW025 31/22 Q1011 NOSIG RMK A2985
Conditions at: RPLL (NINOY AQUINO INT, PH) observed 0700 UTC 18 March 2019
Temperature: 31.0°C (88°F)
Dewpoint: 22.0°C (72°F) [RH = 59%]
Pressure (altimeter): 29.85 inches Hg (1011.0 mb)
Winds: from the ESE (120 degrees) at 16 MPH (14 knots; 7.2 m/s)
Visibility: 6 or more miles (10+ km)
Ceiling: at least 12,000 feet AGL
Clouds: few clouds at 2500 feet AGL
Weather: no significant weather observed at this time

METAR text: RPLL 180600Z 13014KT 9999 FEW025 33/21 Q1012 NOSIG RMK A2988
Conditions at: RPLL (NINOY AQUINO INT, PH) observed 0600 UTC 18 March 2019
Temperature: 33.0°C (91°F)
Dewpoint: 21.0°C (70°F) [RH = 49%]
Pressure (altimeter): 29.88 inches Hg (1012.0 mb)
Winds: from the SE (130 degrees) at 16 MPH (14 knots; 7.2 m/s)
Visibility: 6 or more miles (10+ km)
Ceiling: at least 12,000 feet AGL
Clouds: few clouds at 2500 feet AGL
Weather: no significant weather observed at this time

METAR text: RPLL 180500Z 13014KT 9999 FEW025 33/19 Q1012 NOSIG RMK A2988
Conditions at: RPLL (NINOY AQUINO INT, PH) observed 0500 UTC 18 March 2019
Temperature: 33.0°C (91°F)
Dewpoint: 19.0°C (66°F) [RH = 44%]
Pressure (altimeter): 29.88 inches Hg (1012.0 mb)
Winds: from the SE (130 degrees) at 16 MPH (14 knots; 7.2 m/s)
Visibility: 6 or more miles (10+ km)
Ceiling: at least 12,000 feet AGL
Clouds: few clouds at 2500 feet AGL
Weather: no significant weather observed at this time

METAR text: RPLL 180400Z 12012KT 9999 FEW025 33/20 Q1014 NOSIG RMK A2994
Conditions at: RPLL (NINOY AQUINO INT, PH) observed 0400 UTC 18 March 2019
Temperature: 33.0°C (91°F)
Dewpoint: 20.0°C (68°F) [RH = 46%]
Pressure (altimeter): 29.94 inches Hg (1014.0 mb)
Winds: from the ESE (120 degrees) at 14 MPH (12 knots; 6.2 m/s)
Visibility: 6 or more miles (10+ km)
Ceiling: at least 12,000 feet AGL
Clouds: few clouds at 2500 feet AGL
Weather: no significant weather observed at this time

METAR text: RPLL 180300Z 11010KT 9999 FEW025 32/20 Q1015 NOSIG RMK A2997
Conditions at: RPLL (NINOY AQUINO INT, PH) observed 0300 UTC 18 March 2019
Temperature: 32.0°C (90°F)
Dewpoint: 20.0°C (68°F) [RH = 49%]
Pressure (altimeter): 29.97 inches Hg (1015.0 mb)
Winds: from the ESE (110 degrees) at 12 MPH (10 knots; 5.1 m/s)
Visibility: 6 or more miles (10+ km)
Ceiling: at least 12,000 feet AGL
Clouds: few clouds at 2500 feet AGL
Weather: no significant weather observed at this time

METAR text: RPLL 180200Z 10012KT 9999 FEW025 31/19 Q1015 NOSIG RMK A2997
Conditions at: RPLL (NINOY AQUINO INT, PH) observed 0200 UTC 18 March 2019
Temperature: 31.0°C (88°F)
Dewpoint: 19.0°C (66°F) [RH = 49%]
Pressure (altimeter): 29.97 inches Hg (1015.0 mb)
Winds: from the E (100 degrees) at 14 MPH (12 knots; 6.2 m/s)
Visibility: 6 or more miles (10+ km)
Ceiling: at least 12,000 feet AGL
Clouds: few clouds at 2500 feet AGL
Weather: no significant weather observed at this time

METAR text: RPLL 180100Z 10012KT 9999 FEW025 29/20 Q1015 NOSIG RMK A2997
Conditions at: RPLL (NINOY AQUINO INT, PH) observed 0100 UTC 18 March 2019
Temperature: 29.0°C (84°F)
Dewpoint: 20.0°C (68°F) [RH = 58%]
Pressure (altimeter): 29.97 inches Hg (1015.0 mb)
Winds: from the E (100 degrees) at 14 MPH (12 knots; 6.2 m/s)
Visibility: 6 or more miles (10+ km)
Ceiling: at least 12,000 feet AGL
Clouds: few clouds at 2500 feet AGL
Weather: no significant weather observed at this time

METAR text: RPLL 180000Z 09008KT 9999 FEW025 28/19 Q1015 NOSIG RMK A2997
Conditions at: RPLL (NINOY AQUINO INT, PH) observed 0000 UTC 18 March 2019
Temperature: 28.0°C (82°F)
Dewpoint: 19.0°C (66°F) [RH = 58%]
Pressure (altimeter): 29.97 inches Hg (1015.0 mb)
Winds: from the E (90 degrees) at 9 MPH (8 knots; 4.1 m/s)
Visibility: 6 or more miles (10+ km)
Ceiling: at least 12,000 feet AGL
Clouds: few clouds at 2500 feet AGL
Weather: no significant weather observed at this time

METAR text: RPLL 172300Z 10006KT 9999 FEW025 27/20 Q1014 NOSIG RMK A2994
Conditions at: RPLL (NINOY AQUINO INT, PH) observed 2300 UTC 17 March 2019
Temperature: 27.0°C (81°F)
Dewpoint: 20.0°C (68°F) [RH = 66%]
Pressure (altimeter): 29.94 inches Hg (1014.0 mb)
Winds: from the E (100 degrees) at 7 MPH (6 knots; 3.1 m/s)
Visibility: 6 or more miles (10+ km)
Ceiling: at least 12,000 feet AGL
Clouds: few clouds at 2500 feet AGL
Weather: no significant weather observed at this time

METAR text: RPLL 172200Z 07004KT 040V110 9999 FEW025 26/20 Q1013 NOSIG RMK A2991
Conditions at: RPLL (NINOY AQUINO INT, PH) observed 2200 UTC 17 March 2019
Temperature: 26.0°C (79°F)
Dewpoint: 20.0°C (68°F) [RH = 70%]
Pressure (altimeter): 29.91 inches Hg (1013.0 mb)
Winds: from the ENE (70 degrees) at 5 MPH (4 knots; 2.1 m/s)
Visibility: 6 or more miles (10+ km)
Ceiling: at least 12,000 feet AGL
Clouds: few clouds at 2500 feet AGL
Weather: no significant weather observed at this time

METAR text: RPLL 172100Z VRB02KT 9999 FEW025 26/19 Q1012 NOSIG RMK A2988
Conditions at: RPLL (NINOY AQUINO INT, PH) observed 2100 UTC 17 March 2019
Temperature: 26.0°C (79°F)
Dewpoint: 19.0°C (66°F) [RH = 65%]
Pressure (altimeter): 29.88 inches Hg (1012.0 mb)
Winds: variable direction winds at 2 MPH (2 knots; 1.0 m/s)
Visibility: 6 or more miles (10+ km)
Ceiling: at least 12,000 feet AGL
Clouds: few clouds at 2500 feet AGL
Weather: no significant weather observed at this time

METAR text: RPLL 172000Z 09005KT 9999 FEW025 26/19 Q1012 NOSIG RMK A2988
Conditions at: RPLL (NINOY AQUINO INT, PH) observed 2000 UTC 17 March 2019
Temperature: 26.0°C (79°F)
Dewpoint: 19.0°C (66°F) [RH = 65%]
Pressure (altimeter): 29.88 inches Hg (1012.0 mb)
Winds: from the E (90 degrees) at 6 MPH (5 knots; 2.6 m/s)
Visibility: 6 or more miles (10+ km)
Ceiling: at least 12,000 feet AGL
Clouds: few clouds at 2500 feet AGL
Weather: no significant weather observed at this time

METAR text: RPLL 171900Z 09004KT 9999 FEW025 26/20 Q1012 NOSIG RMK A2988
Conditions at: RPLL (NINOY AQUINO INT, PH) observed 1900 UTC 17 March 2019
Temperature: 26.0°C (79°F)
Dewpoint: 20.0°C (68°F) [RH = 70%]
Pressure (altimeter): 29.88 inches Hg (1012.0 mb)
Winds: from the E (90 degrees) at 5 MPH (4 knots; 2.1 m/s)
Visibility: 6 or more miles (10+ km)
Ceiling: at least 12,000 feet AGL
Clouds: few clouds at 2500 feet AGL
Weather: no significant weather observed at this time

Forecast for: RPLL (NINOY AQUINO INT, PH)
Text: TAF RPLL 190500Z 1906/2012 11008KT 9999 FEW025 TX34/1906Z TN26/1921Z
Forecast period: 0600 UTC 19 March 2019 to 1200 UTC 20 March 2019
Forecast type: FROM: standard forecast or significant change
Winds: from the ESE (110 degrees) at 9 MPH (8 knots; 4.1 m/s)
Visibility: 6 or more miles 10+ km)
Ceiling: at least 12,000 feet AGL
Clouds: few clouds at 2500 feet AGL
Weather: no significant weather forecast for this period
Text: TEMPO 1906/1912 14014KT SCT023 BKN100
Forecast period: 0600 to 1200 UTC 19 March 2019
Forecast type: TEMPORARY: The following changes expected for less than half the time period
Winds: from the SE (140 degrees) at 16 MPH (14 knots; 7.2 m/s)
Visibility: missing
Ceiling: 10000 feet AGL
Clouds: scattered clouds at 2300 feet AGL
broken clouds at 10000 feet AGL
Weather: no significant weather forecast for this period
Text: TEMPO 1912/1918 14010KT FEW025 BKN300
Forecast period: 1200 to 1800 UTC 19 March 2019
Forecast type: TEMPORARY: The following changes expected for less than half the time period
Winds: from the SE (140 degrees) at 12 MPH (10 knots; 5.1 m/s)
Visibility: missing
Ceiling: 30000 feet AGL
Clouds: few clouds at 2500 feet AGL
broken clouds at 30000 feet AGL
Weather: no significant weather forecast for this period